SHU4605 UHHH-UHSS
Flight info
| Callsign | SHU4605 |
|---|---|
| Flight time | 0h 58m |
| Altitude | 37000 |
| Route | NEBES4R NEBES DCT KELUL KELUL4V |
| Aircraft | A319/M-SDE3FGHIRWY/LB1 |
Departure
| Time | 2026-04-29 18:44 |
|---|---|
| Airport | Khabarovsk Novy Airport (UHHH) |
Arrival
| Time | 2026-04-29 19:42 |
|---|---|
| Airport | Yuzhno-Sakhalinsk International Airport (UHSS) |
| Time | Latitude | Longitude | Altitude | Speed | Heading |
|---|---|---|---|---|---|
| 2026-04-29 17:49 | 48.52530 | 135.17206 | 246 ft | 0 kts | 312° |
| 2026-04-29 18:19 | 48.52518 | 135.17227 | 246 ft | 4 kts | 312° |
| 2026-04-29 18:20 | 48.52501 | 135.17257 | 246 ft | 3 kts | 311° |
| 2026-04-29 18:20 | 48.52486 | 135.17281 | 246 ft | 4 kts | 312° |
| 2026-04-29 18:20 | 48.52471 | 135.17309 | 246 ft | 4 kts | 322° |
| 2026-04-29 18:20 | 48.52477 | 135.17323 | 246 ft | 4 kts | 50° |
| 2026-04-29 18:21 | 48.52460 | 135.17294 | 246 ft | 3 kts | 42° |
| 2026-04-29 18:21 | 48.52446 | 135.17275 | 246 ft | 0 kts | 42° |
| 2026-04-29 18:37 | 48.52448 | 135.17278 | 246 ft | 2 kts | 42° |
| 2026-04-29 18:37 | 48.52489 | 135.17334 | 246 ft | 11 kts | 42° |
| 2026-04-29 18:37 | 48.52549 | 135.17417 | 245 ft | 13 kts | 42° |
| 2026-04-29 18:37 | 48.52618 | 135.17511 | 244 ft | 14 kts | 41° |
| 2026-04-29 18:38 | 48.52708 | 135.17554 | 243 ft | 15 kts | 324° |
| 2026-04-29 18:38 | 48.52801 | 135.17561 | 243 ft | 16 kts | 43° |
| 2026-04-29 18:38 | 48.52884 | 135.17681 | 243 ft | 17 kts | 44° |
| 2026-04-29 18:38 | 48.52904 | 135.17835 | 244 ft | 16 kts | 116° |
| 2026-04-29 18:39 | 48.52828 | 135.17968 | 244 ft | 17 kts | 131° |
| 2026-04-29 18:39 | 48.52800 | 135.18117 | 245 ft | 16 kts | 51° |
| 2026-04-29 18:39 | 48.52883 | 135.18236 | 246 ft | 16 kts | 43° |
| 2026-04-29 18:39 | 48.52966 | 135.18352 | 247 ft | 17 kts | 43° |
| 2026-04-29 18:40 | 48.53054 | 135.18482 | 249 ft | 20 kts | 62° |
| 2026-04-29 18:40 | 48.52994 | 135.18651 | 250 ft | 20 kts | 133° |
| 2026-04-29 18:40 | 48.52999 | 135.18824 | 249 ft | 20 kts | 44° |
| 2026-04-29 18:40 | 48.53102 | 135.18964 | 250 ft | 20 kts | 43° |
| 2026-04-29 18:41 | 48.53424 | 135.19405 | 248 ft | 23 kts | 42° |
| 2026-04-29 18:41 | 48.53545 | 135.19569 | 244 ft | 25 kts | 42° |
| 2026-04-29 18:42 | 48.53680 | 135.19752 | 240 ft | 27 kts | 42° |
| 2026-04-29 18:42 | 48.53824 | 135.19949 | 237 ft | 28 kts | 43° |
| 2026-04-29 18:42 | 48.53947 | 135.20061 | 236 ft | 12 kts | 11° |
| 2026-04-29 18:42 | 48.53955 | 135.20141 | 235 ft | 10 kts | 171° |
| 2026-04-29 18:43 | 48.53902 | 135.20064 | 236 ft | 11 kts | 223° |
| 2026-04-29 18:43 | 48.53844 | 135.19983 | 237 ft | 11 kts | 223° |
| 2026-04-29 18:43 | 48.53708 | 135.19800 | 239 ft | 60 kts | 222° |
| 2026-04-29 18:43 | 48.53215 | 135.19131 | 251 ft | 128 kts | 222° |
| 2026-04-29 18:44 | 48.52435 | 135.18090 | 414 ft | 163 kts | 219° |
| 2026-04-29 18:44 | 48.51560 | 135.17029 | 1131 ft | 161 kts | 219° |
| 2026-04-29 18:44 | 48.50725 | 135.15903 | 1807 ft | 161 kts | 221° |
| 2026-04-29 18:44 | 48.49871 | 135.14709 | 2280 ft | 177 kts | 222° |
| 2026-04-29 18:45 | 48.48911 | 135.13370 | 2622 ft | 199 kts | 222° |
| 2026-04-29 18:45 | 48.47841 | 135.11885 | 3007 ft | 218 kts | 222° |
| 2026-04-29 18:45 | 48.46670 | 135.10265 | 3473 ft | 236 kts | 222° |
| 2026-04-29 18:45 | 48.45447 | 135.08577 | 4257 ft | 240 kts | 222° |
| 2026-04-29 18:46 | 48.44207 | 135.06874 | 5109 ft | 242 kts | 221° |
| 2026-04-29 18:46 | 48.42979 | 135.05200 | 5964 ft | 242 kts | 222° |
| 2026-04-29 18:46 | 48.41728 | 135.03502 | 6800 ft | 242 kts | 222° |
| 2026-04-29 18:46 | 48.40468 | 135.01796 | 7597 ft | 245 kts | 223° |
| 2026-04-29 18:47 | 48.39177 | 135.00050 | 8199 ft | 259 kts | 224° |
| 2026-04-29 18:47 | 48.37793 | 134.98172 | 8724 ft | 274 kts | 224° |
| 2026-04-29 18:47 | 48.36357 | 134.96229 | 9497 ft | 280 kts | 224° |
| 2026-04-29 18:47 | 48.34892 | 134.94253 | 10257 ft | 287 kts | 225° |
| 2026-04-29 18:48 | 48.33347 | 134.92164 | 10560 ft | 311 kts | 226° |
| 2026-04-29 18:48 | 48.31714 | 134.89955 | 11038 ft | 326 kts | 226° |
| 2026-04-29 18:48 | 48.29980 | 134.87714 | 11748 ft | 334 kts | 221° |
| 2026-04-29 18:48 | 48.27950 | 134.85904 | 12457 ft | 346 kts | 208° |
| 2026-04-29 18:49 | 48.25595 | 134.84913 | 13134 ft | 360 kts | 190° |
| 2026-04-29 18:49 | 48.23057 | 134.85088 | 13795 ft | 373 kts | 169° |
| 2026-04-29 18:49 | 48.20643 | 134.86605 | 14446 ft | 382 kts | 146° |
| 2026-04-29 18:49 | 48.18714 | 134.89356 | 15055 ft | 386 kts | 123° |
| 2026-04-29 18:50 | 48.17309 | 134.92789 | 15684 ft | 389 kts | 117° |
| 2026-04-29 18:50 | 48.15933 | 134.96305 | 16287 ft | 394 kts | 117° |
| 2026-04-29 18:50 | 48.14557 | 134.99816 | 16882 ft | 399 kts | 117° |
| 2026-04-29 18:50 | 48.13293 | 135.03521 | 17461 ft | 400 kts | 108° |
| 2026-04-29 18:51 | 48.12457 | 135.07481 | 18031 ft | 399 kts | 97° |
| 2026-04-29 18:51 | 48.12080 | 135.11575 | 18605 ft | 396 kts | 86° |
| 2026-04-29 18:51 | 48.12022 | 135.15707 | 19180 ft | 398 kts | 84° |
| 2026-04-29 18:51 | 48.11971 | 135.19867 | 19747 ft | 402 kts | 84° |
| 2026-04-29 18:52 | 48.11909 | 135.24069 | 20314 ft | 406 kts | 84° |
| 2026-04-29 18:52 | 48.11840 | 135.28308 | 20857 ft | 410 kts | 84° |
| 2026-04-29 18:52 | 48.11766 | 135.32587 | 21388 ft | 414 kts | 84° |
| 2026-04-29 18:52 | 48.11691 | 135.36858 | 21917 ft | 417 kts | 84° |
| 2026-04-29 18:53 | 48.11611 | 135.41208 | 22431 ft | 420 kts | 84° |
| 2026-04-29 18:53 | 48.11529 | 135.45603 | 22922 ft | 424 kts | 84° |
| 2026-04-29 18:53 | 48.11447 | 135.50029 | 23415 ft | 427 kts | 83° |
| 2026-04-29 18:53 | 48.11365 | 135.54486 | 23895 ft | 430 kts | 83° |
| 2026-04-29 18:54 | 48.11281 | 135.58969 | 24349 ft | 433 kts | 83° |
| 2026-04-29 18:54 | 48.11195 | 135.63493 | 24790 ft | 436 kts | 83° |
| 2026-04-29 18:54 | 48.11108 | 135.68046 | 25236 ft | 439 kts | 83° |
| 2026-04-29 18:54 | 48.11019 | 135.72554 | 25659 ft | 441 kts | 83° |
| 2026-04-29 18:55 | 48.10927 | 135.77155 | 26102 ft | 443 kts | 83° |
| 2026-04-29 18:55 | 48.10830 | 135.81779 | 26542 ft | 445 kts | 83° |
| 2026-04-29 18:55 | 48.10736 | 135.86418 | 26951 ft | 446 kts | 81° |
| 2026-04-29 18:55 | 48.10942 | 135.90990 | 27358 ft | 436 kts | 71° |
| 2026-04-29 18:56 | 48.11607 | 135.95358 | 27733 ft | 426 kts | 62° |
| 2026-04-29 18:56 | 48.12594 | 135.99521 | 28125 ft | 425 kts | 59° |
| 2026-04-29 18:56 | 48.13599 | 136.03692 | 28518 ft | 427 kts | 59° |
| 2026-04-29 18:56 | 48.14602 | 136.07885 | 28906 ft | 429 kts | 60° |
| 2026-04-29 18:57 | 48.15588 | 136.12044 | 29267 ft | 431 kts | 60° |
| 2026-04-29 18:57 | 48.16586 | 136.16291 | 29638 ft | 433 kts | 60° |
| 2026-04-29 18:57 | 48.17584 | 136.20553 | 29996 ft | 435 kts | 60° |
| 2026-04-29 18:57 | 48.18585 | 136.24834 | 30344 ft | 436 kts | 60° |
| 2026-04-29 18:58 | 48.19591 | 136.29134 | 30660 ft | 438 kts | 60° |
| 2026-04-29 18:58 | 48.20604 | 136.33456 | 30968 ft | 440 kts | 60° |
| 2026-04-29 18:58 | 48.21620 | 136.37793 | 31252 ft | 443 kts | 60° |
| 2026-04-29 18:58 | 48.22643 | 136.42166 | 31524 ft | 445 kts | 60° |
| 2026-04-29 18:59 | 48.23651 | 136.46484 | 31912 ft | 445 kts | 60° |
| 2026-04-29 18:59 | 48.24667 | 136.50861 | 32323 ft | 444 kts | 60° |
| 2026-04-29 18:59 | 48.25681 | 136.55235 | 32693 ft | 444 kts | 60° |
| 2026-04-29 18:59 | 48.26692 | 136.59613 | 33062 ft | 444 kts | 61° |
| 2026-04-29 19:00 | 48.27698 | 136.63987 | 33437 ft | 443 kts | 61° |
| 2026-04-29 19:00 | 48.28701 | 136.68362 | 33812 ft | 443 kts | 61° |
| 2026-04-29 19:00 | 48.29645 | 136.72775 | 34173 ft | 448 kts | 67° |
| 2026-04-29 19:00 | 48.30158 | 136.77449 | 34531 ft | 460 kts | 77° |
| 2026-04-29 19:01 | 48.30119 | 136.82316 | 34797 ft | 473 kts | 89° |
| 2026-04-29 19:01 | 48.29513 | 136.87228 | 35055 ft | 482 kts | 96° |
| 2026-04-29 19:01 | 48.28787 | 136.92068 | 35334 ft | 482 kts | 96° |
| 2026-04-29 19:01 | 48.28055 | 136.96980 | 35609 ft | 482 kts | 96° |
| 2026-04-29 19:02 | 48.27329 | 137.01892 | 35879 ft | 482 kts | 96° |
| 2026-04-29 19:02 | 48.26850 | 137.05151 | 36046 ft | 482 kts | 96° |
| 2026-04-29 19:02 | 48.25886 | 137.11719 | 36368 ft | 482 kts | 96° |
| 2026-04-29 19:02 | 48.25163 | 137.16640 | 36589 ft | 483 kts | 97° |
| 2026-04-29 19:03 | 48.24435 | 137.21561 | 36843 ft | 483 kts | 97° |
| 2026-04-29 19:03 | 48.23702 | 137.26468 | 36983 ft | 481 kts | 97° |
| 2026-04-29 19:03 | 48.22250 | 137.36104 | 37007 ft | 474 kts | 97° |
| 2026-04-29 19:04 | 48.20794 | 137.45718 | 37006 ft | 473 kts | 97° |
| 2026-04-29 19:04 | 48.19338 | 137.55325 | 37013 ft | 472 kts | 97° |
| 2026-04-29 19:05 | 48.17872 | 137.64928 | 37017 ft | 473 kts | 97° |
| 2026-04-29 19:05 | 48.16408 | 137.74458 | 37018 ft | 473 kts | 97° |
| 2026-04-29 19:06 | 48.14924 | 137.84040 | 37017 ft | 472 kts | 97° |
| 2026-04-29 19:07 | 48.12697 | 137.98420 | 37019 ft | 473 kts | 97° |
| 2026-04-29 19:07 | 48.11189 | 138.07986 | 37024 ft | 472 kts | 97° |
| 2026-04-29 19:08 | 48.09683 | 138.17468 | 37024 ft | 472 kts | 97° |
| 2026-04-29 19:08 | 48.08169 | 138.27017 | 37016 ft | 472 kts | 97° |
| 2026-04-29 19:09 | 48.06653 | 138.36565 | 37016 ft | 472 kts | 98° |
| 2026-04-29 19:09 | 48.05119 | 138.46095 | 37014 ft | 472 kts | 98° |
| 2026-04-29 19:10 | 48.03577 | 138.55632 | 37011 ft | 473 kts | 98° |
| 2026-04-29 19:10 | 48.02035 | 138.65105 | 37021 ft | 473 kts | 98° |
| 2026-04-29 19:11 | 48.00476 | 138.74644 | 37023 ft | 473 kts | 98° |
| 2026-04-29 19:11 | 47.98910 | 138.84178 | 37025 ft | 473 kts | 98° |
| 2026-04-29 19:12 | 47.97348 | 138.93655 | 37022 ft | 474 kts | 98° |
| 2026-04-29 19:12 | 47.95763 | 139.03188 | 37015 ft | 473 kts | 99° |
| 2026-04-29 19:13 | 47.94170 | 139.12725 | 37010 ft | 474 kts | 99° |
| 2026-04-29 19:13 | 47.92567 | 139.22275 | 37017 ft | 475 kts | 99° |
| 2026-04-29 19:14 | 47.90955 | 139.31827 | 37033 ft | 475 kts | 99° |
| 2026-04-29 19:14 | 47.89343 | 139.41314 | 37039 ft | 476 kts | 99° |
| 2026-04-29 19:15 | 47.87716 | 139.50865 | 37045 ft | 476 kts | 99° |
| 2026-04-29 19:15 | 47.86078 | 139.60402 | 37045 ft | 475 kts | 99° |
| 2026-04-29 19:16 | 47.84426 | 139.69922 | 37043 ft | 475 kts | 100° |
| 2026-04-29 19:16 | 47.82784 | 139.79374 | 36844 ft | 474 kts | 100° |
| 2026-04-29 19:16 | 47.81956 | 139.84119 | 36592 ft | 473 kts | 99° |
| 2026-04-29 19:17 | 47.81128 | 139.88851 | 36344 ft | 473 kts | 99° |
| 2026-04-29 19:17 | 47.80300 | 139.93581 | 36091 ft | 473 kts | 99° |
| 2026-04-29 19:17 | 47.79470 | 139.98328 | 35840 ft | 475 kts | 99° |
| 2026-04-29 19:17 | 47.78631 | 140.03097 | 35588 ft | 477 kts | 99° |
| 2026-04-29 19:18 | 47.77788 | 140.07852 | 35339 ft | 475 kts | 99° |
| 2026-04-29 19:18 | 47.77230 | 140.11000 | 35172 ft | 474 kts | 99° |
| 2026-04-29 19:18 | 47.76115 | 140.17258 | 34843 ft | 471 kts | 99° |
| 2026-04-29 19:18 | 47.75277 | 140.21954 | 34600 ft | 469 kts | 99° |
| 2026-04-29 19:19 | 47.74439 | 140.26625 | 34341 ft | 467 kts | 98° |
| 2026-04-29 19:19 | 47.73609 | 140.31272 | 34092 ft | 465 kts | 98° |
| 2026-04-29 19:19 | 47.72781 | 140.35904 | 33840 ft | 463 kts | 98° |
| 2026-04-29 19:19 | 47.71957 | 140.40512 | 33590 ft | 460 kts | 98° |
| 2026-04-29 19:20 | 47.71135 | 140.45090 | 33313 ft | 457 kts | 98° |
| 2026-04-29 19:20 | 47.70322 | 140.49573 | 32793 ft | 456 kts | 98° |
| 2026-04-29 19:20 | 47.69497 | 140.54102 | 32263 ft | 454 kts | 97° |
| 2026-04-29 19:20 | 47.68671 | 140.58620 | 31731 ft | 453 kts | 97° |
| 2026-04-29 19:21 | 47.67848 | 140.63126 | 31206 ft | 451 kts | 96° |
| 2026-04-29 19:21 | 47.67030 | 140.67600 | 30701 ft | 448 kts | 96° |
| 2026-04-29 19:21 | 47.66217 | 140.72046 | 30198 ft | 445 kts | 95° |
| 2026-04-29 19:21 | 47.65406 | 140.76468 | 29711 ft | 442 kts | 95° |
| 2026-04-29 19:22 | 47.64601 | 140.80851 | 29217 ft | 439 kts | 95° |
| 2026-04-29 19:22 | 47.63803 | 140.85200 | 28748 ft | 435 kts | 96° |
| 2026-04-29 19:22 | 47.63019 | 140.89450 | 28291 ft | 432 kts | 96° |
| 2026-04-29 19:22 | 47.62226 | 140.93723 | 27822 ft | 429 kts | 96° |
| 2026-04-29 19:23 | 47.61438 | 140.97965 | 27356 ft | 425 kts | 97° |
| 2026-04-29 19:23 | 47.60652 | 141.02182 | 26889 ft | 423 kts | 97° |
| 2026-04-29 19:23 | 47.59869 | 141.06369 | 26404 ft | 421 kts | 98° |
| 2026-04-29 19:23 | 47.59090 | 141.10540 | 25936 ft | 419 kts | 98° |
| 2026-04-29 19:24 | 47.58314 | 141.14697 | 25449 ft | 418 kts | 99° |
| 2026-04-29 19:24 | 47.57550 | 141.18785 | 24956 ft | 417 kts | 99° |
| 2026-04-29 19:24 | 47.56778 | 141.22904 | 24572 ft | 412 kts | 100° |
| 2026-04-29 19:24 | 47.56006 | 141.26996 | 24049 ft | 412 kts | 101° |
| 2026-04-29 19:25 | 47.55239 | 141.31045 | 23710 ft | 406 kts | 101° |
| 2026-04-29 19:25 | 47.54478 | 141.35057 | 23238 ft | 404 kts | 101° |
| 2026-04-29 19:25 | 47.53724 | 141.39050 | 22792 ft | 402 kts | 102° |
| 2026-04-29 19:25 | 47.52973 | 141.43021 | 22366 ft | 399 kts | 102° |
| 2026-04-29 19:26 | 47.52225 | 141.46957 | 21947 ft | 396 kts | 102° |
| 2026-04-29 19:26 | 47.51478 | 141.50862 | 21521 ft | 393 kts | 102° |
| 2026-04-29 19:26 | 47.50736 | 141.54743 | 21081 ft | 391 kts | 103° |
| 2026-04-29 19:26 | 47.50003 | 141.58544 | 20650 ft | 388 kts | 103° |
| 2026-04-29 19:27 | 47.49265 | 141.62364 | 20225 ft | 385 kts | 103° |
| 2026-04-29 19:27 | 47.48530 | 141.66167 | 19786 ft | 383 kts | 104° |
| 2026-04-29 19:27 | 47.47802 | 141.69938 | 19350 ft | 380 kts | 104° |
| 2026-04-29 19:27 | 47.47079 | 141.73681 | 18929 ft | 378 kts | 104° |
| 2026-04-29 19:28 | 47.46356 | 141.77406 | 18511 ft | 375 kts | 104° |
| 2026-04-29 19:28 | 47.45642 | 141.81093 | 18065 ft | 372 kts | 104° |
| 2026-04-29 19:28 | 47.44936 | 141.84755 | 17619 ft | 371 kts | 105° |
| 2026-04-29 19:28 | 47.44226 | 141.88352 | 17214 ft | 368 kts | 105° |
| 2026-04-29 19:29 | 47.43518 | 141.91970 | 16820 ft | 365 kts | 105° |
| 2026-04-29 19:29 | 47.42817 | 141.95565 | 16425 ft | 363 kts | 105° |
| 2026-04-29 19:29 | 47.42120 | 141.99138 | 16049 ft | 361 kts | 105° |
| 2026-04-29 19:29 | 47.41427 | 142.02681 | 15662 ft | 358 kts | 105° |
| 2026-04-29 19:30 | 47.40735 | 142.06212 | 15270 ft | 357 kts | 105° |
| 2026-04-29 19:30 | 47.40046 | 142.09704 | 14834 ft | 352 kts | 105° |
| 2026-04-29 19:30 | 47.39362 | 142.13161 | 14194 ft | 349 kts | 105° |
| 2026-04-29 19:30 | 47.38684 | 142.16586 | 13562 ft | 346 kts | 105° |
| 2026-04-29 19:31 | 47.38020 | 142.19974 | 12948 ft | 342 kts | 105° |
| 2026-04-29 19:31 | 47.37378 | 142.23279 | 12510 ft | 337 kts | 105° |
| 2026-04-29 19:31 | 47.36740 | 142.26559 | 12134 ft | 329 kts | 105° |
| 2026-04-29 19:31 | 47.36114 | 142.29781 | 11759 ft | 324 kts | 105° |
| 2026-04-29 19:32 | 47.35496 | 142.32950 | 11390 ft | 319 kts | 105° |
| 2026-04-29 19:32 | 47.34890 | 142.36057 | 11023 ft | 313 kts | 106° |
| 2026-04-29 19:32 | 47.34291 | 142.39117 | 10653 ft | 308 kts | 106° |
| 2026-04-29 19:32 | 47.33701 | 142.42128 | 10298 ft | 303 kts | 106° |
| 2026-04-29 19:33 | 47.33118 | 142.45091 | 9923 ft | 299 kts | 106° |
| 2026-04-29 19:33 | 47.32540 | 142.48016 | 9563 ft | 295 kts | 106° |
| 2026-04-29 19:33 | 47.31969 | 142.50898 | 9202 ft | 291 kts | 106° |
| 2026-04-29 19:33 | 47.31402 | 142.53704 | 8827 ft | 287 kts | 109° |
| 2026-04-29 19:34 | 47.30484 | 142.56263 | 8460 ft | 280 kts | 130° |
| 2026-04-29 19:34 | 47.29090 | 142.58204 | 8100 ft | 273 kts | 143° |
| 2026-04-29 19:34 | 47.27641 | 142.59945 | 7746 ft | 269 kts | 143° |
| 2026-04-29 19:34 | 47.26206 | 142.61644 | 7362 ft | 260 kts | 143° |
| 2026-04-29 19:35 | 47.24804 | 142.63286 | 7019 ft | 256 kts | 143° |
| 2026-04-29 19:35 | 47.23445 | 142.64852 | 6686 ft | 244 kts | 144° |
| 2026-04-29 19:35 | 47.22131 | 142.66360 | 6344 ft | 235 kts | 145° |
| 2026-04-29 19:35 | 47.20863 | 142.67816 | 6020 ft | 234 kts | 144° |
| 2026-04-29 19:36 | 47.19612 | 142.69266 | 5652 ft | 228 kts | 144° |
| 2026-04-29 19:36 | 47.18297 | 142.70493 | 5307 ft | 219 kts | 161° |
| 2026-04-29 19:36 | 47.16831 | 142.71037 | 4892 ft | 218 kts | 176° |
| 2026-04-29 19:36 | 47.15324 | 142.71315 | 4455 ft | 218 kts | 175° |
| 2026-04-29 19:37 | 47.13819 | 142.71600 | 4020 ft | 218 kts | 174° |
| 2026-04-29 19:37 | 47.12824 | 142.71790 | 3734 ft | 218 kts | 174° |
| 2026-04-29 19:37 | 47.10824 | 142.72159 | 3158 ft | 214 kts | 178° |
| 2026-04-29 19:37 | 47.09396 | 142.72230 | 2990 ft | 195 kts | 181° |
| 2026-04-29 19:38 | 47.08081 | 142.72216 | 3005 ft | 189 kts | 182° |
| 2026-04-29 19:38 | 47.06773 | 142.72188 | 3011 ft | 187 kts | 182° |
| 2026-04-29 19:38 | 47.05475 | 142.72156 | 2985 ft | 185 kts | 182° |
| 2026-04-29 19:38 | 47.04242 | 142.72127 | 2801 ft | 173 kts | 182° |
| 2026-04-29 19:39 | 47.03073 | 142.72098 | 2576 ft | 164 kts | 181° |
| 2026-04-29 19:39 | 47.01969 | 142.72071 | 2375 ft | 154 kts | 181° |
| 2026-04-29 19:39 | 47.00929 | 142.72046 | 2172 ft | 147 kts | 180° |
| 2026-04-29 19:39 | 46.99918 | 142.72021 | 1989 ft | 144 kts | 180° |
| 2026-04-29 19:40 | 46.98939 | 142.71998 | 1800 ft | 137 kts | 180° |
| 2026-04-29 19:40 | 46.98011 | 142.71975 | 1625 ft | 134 kts | 180° |
| 2026-04-29 19:40 | 46.97081 | 142.71953 | 1447 ft | 133 kts | 180° |
| 2026-04-29 19:40 | 46.96152 | 142.71928 | 1269 ft | 134 kts | 180° |
| 2026-04-29 19:41 | 46.95221 | 142.71905 | 1089 ft | 133 kts | 180° |
| 2026-04-29 19:41 | 46.94293 | 142.71884 | 919 ft | 133 kts | 180° |
| 2026-04-29 19:41 | 46.93368 | 142.71862 | 741 ft | 133 kts | 180° |
| 2026-04-29 19:41 | 46.92438 | 142.71840 | 571 ft | 133 kts | 180° |
| 2026-04-29 19:42 | 46.91511 | 142.71817 | 388 ft | 133 kts | 180° |
| 2026-04-29 19:42 | 46.90899 | 142.71802 | 268 ft | 133 kts | 180° |
| 2026-04-29 19:42 | 46.89692 | 142.71772 | 85 ft | 121 kts | 181° |
| 2026-04-29 19:42 | 46.89081 | 142.71758 | 80 ft | 48 kts | 181° |
| 2026-04-29 19:43 | 46.88956 | 142.71755 | 77 ft | 2 kts | 181° |
| 2026-04-29 19:43 | 46.88922 | 142.71754 | 77 ft | 7 kts | 181° |
| 2026-04-29 19:43 | 46.88877 | 142.71753 | 74 ft | 9 kts | 181° |
| 2026-04-29 19:43 | 46.88825 | 142.71734 | 74 ft | 7 kts | 147° |
| 2026-04-29 19:44 | 46.88870 | 142.71756 | 73 ft | 12 kts | 356° |
| 2026-04-29 19:44 | 46.88974 | 142.71754 | 78 ft | 18 kts | 0° |
| 2026-04-29 19:44 | 46.89081 | 142.71851 | 78 ft | 18 kts | 70° |
| 2026-04-29 19:44 | 46.89085 | 142.71865 | 78 ft | 0 kts | 70° |
| 2026-04-29 19:49 | 46.89085 | 142.71867 | 70 ft | 5 kts | 70° |
| 2026-04-29 19:50 | 46.89100 | 142.71932 | 69 ft | 7 kts | 75° |
| 2026-04-29 19:50 | 46.89107 | 142.72000 | 68 ft | 7 kts | 90° |
| 2026-04-29 19:50 | 46.89097 | 142.72067 | 76 ft | 7 kts | 113° |
| 2026-04-29 19:50 | 46.89071 | 142.72124 | 75 ft | 7 kts | 133° |
| 2026-04-29 19:51 | 46.89036 | 142.72168 | 69 ft | 7 kts | 146° |
| 2026-04-29 19:51 | 46.88995 | 142.72202 | 70 ft | 7 kts | 154° |
| 2026-04-29 19:51 | 46.88951 | 142.72228 | 68 ft | 7 kts | 162° |
| 2026-04-29 19:51 | 46.88905 | 142.72245 | 69 ft | 7 kts | 169° |
| 2026-04-29 19:52 | 46.88859 | 142.72254 | 76 ft | 7 kts | 177° |
| 2026-04-29 19:52 | 46.88812 | 142.72250 | 72 ft | 7 kts | 191° |
| 2026-04-29 19:52 | 46.88785 | 142.72230 | 76 ft | 7 kts | 259° |
| 2026-04-29 19:52 | 46.88787 | 142.72246 | 74 ft | 0 kts | 122° |